Latest Weather Observations for Camooweal

IDD60801

Issued at 12:01 pm CST Tuesday 25 July 2017 (issued every 30 minutes, with the page automatically refreshed every 10 minutes)

About weather observations | Map of weather stations | Latest weather observations for NT | Other Formats
Station Details ID: 037010 Name: CAMOOWEAL TOWNSHIP Lat: -19.92 Lon: 138.12 Height: 231.2 m
Data from the previous 72 hours. | See also: Recent months at Camooweal
Date/Time
CST
Temp
°C
App
Temp
°C
Dew
Point
°C
Rel
Hum
%
Delta-T
°C
Wind Press
QNH
hPa
Press
MSL
hPa
Rain since
9am
mm
Dir  Spd
km/h
Gust
km/h
Spd
kts
Gust
kts
25/12:00pm 30.0 26.0 6.6 23 12.6 ENE 17 30 9 16 1018.0 1017.6 0.0
25/11:30am 29.4 24.7 6.1 23 12.4 E 20 30 11 16 1018.3 1017.9 0.0
25/11:00am 28.6 23.9 6.1 24 12.0 E 20 30 11 16 1018.7 1018.3 0.0
25/10:30am 27.6 22.5 5.8 25 11.4 E 22 32 12 17 1019.1 1018.7 0.0
25/10:00am 27.0 21.6 6.4 27 10.9 ESE 24 32 13 17 1019.2 1018.8 0.0
25/09:30am 24.8 21.5 6.5 31 9.6 E 13 20 7 11 1019.4 1019.0 0.0
25/09:00am 21.1 17.4 4.6 34 8.1 ESE 13 19 7 10 1019.5 1019.1 0.0
25/08:30am 18.6 15.2 4.0 38 7.0 SSE 11 17 6 9 1019.3 1018.9 0.0
25/08:23am 17.3 14.2 3.6 40 6.4 S 9 13 5 7 1019.2 1018.8 0.0
25/08:00am 12.3 9.1 1.0 46 4.8 SSW 7 7 4 4 1019.2 1018.8 0.0
25/07:30am 9.8 6.5 0.4 52 3.8 SSW 7 9 4 5 1018.9 1018.5 0.0
25/07:00am 9.0 5.9 0.2 54 3.6 SW 6 7 3 4 1018.9 1018.5 0.0
25/06:30am 9.0 5.7 -0.1 53 3.6 SW 7 7 4 4 1018.8 1018.4 0.0
25/06:00am 9.3 5.9 -0.3 51 3.9 SW 7 7 4 4 1018.5 1018.1 0.0
25/05:30am 9.6 6.3 0.2 52 3.8 SW 7 9 4 5 1018.3 1017.9 0.0
25/05:00am 9.9 6.5 -0.3 49 4.1 SW 7 7 4 4 1018.2 1017.8 0.0
25/04:30am 10.4 7.3 0.4 50 4.1 SSW 6 7 3 4 1018.1 1017.7 0.0
25/04:00am 10.5 7.2 0.3 49 4.2 SW 7 7 4 4 1018.1 1017.7 0.0
25/03:30am 10.4 7.1 0.2 49 4.2 SSW 7 9 4 5 1018.0 1017.6 0.0
25/03:00am 10.6 6.9 0.1 48 4.3 SSW 9 9 5 5 1018.1 1017.7 0.0
25/02:30am 11.3 8.0 0.4 47 4.5 SSW 7 11 4 6 1018.0 1017.6 0.0
25/02:00am 11.7 8.5 0.5 46 4.7 SW 7 9 4 5 1018.0 1017.6 0.0
25/01:30am 12.0 8.3 0.1 44 4.9 SW 9 11 5 6 1018.0 1017.6 0.0
25/01:00am 12.4 9.1 0.2 43 5.1 SSW 7 9 4 5 1018.1 1017.7 0.0
25/12:30am 13.1 9.5 0.5 42 5.3 SW 9 9 5 5 1018.1 1017.7 0.0
25/12:00am 14.1 10.4 0.0 38 6.0 SW 9 11 5 6 1018.2 1017.8 0.0
 
Date/Time
CST
Temp
°C
App
Temp
°C
Dew
Point
°C
Rel
Hum
%
Delta-T
°C
Wind Press
QNH
hPa
Press
MSL
hPa
Rain since
9am
mm
Dir  Spd
km/h
Gust
km/h
Spd
kts
Gust
kts
24/11:30pm 15.3 11.7 0.7 37 6.3 SW 9 9 5 5 1018.3 1017.9 0.0
24/11:00pm 15.9 12.7 0.9 36 6.6 SSW 7 11 4 6 1018.6 1018.2 0.0
24/10:30pm 16.1 12.5 0.7 35 6.7 SSW 9 13 5 7 1018.4 1018.0 0.0
24/10:00pm 16.5 12.5 0.6 34 7.0 SSW 11 17 6 9 1018.3 1017.9 0.0
24/09:30pm 17.1 13.5 0.7 33 7.2 SSW 9 15 5 8 1018.3 1017.9 0.0
24/09:00pm 17.7 13.7 0.4 31 7.6 SSW 11 13 6 7 1018.1 1017.7 0.0
24/08:30pm 20.9 16.0 1.7 28 8.9 S 17 20 9 11 1017.9 1017.5 0.0
24/08:00pm 18.6 14.3 -1.3 26 8.6 SSW 11 13 6 7 1017.6 1017.2 0.0
24/07:30pm 19.4 15.2 -1.1 25 8.9 SSW 11 15 6 8 1017.3 1016.9 0.0
24/07:00pm 20.6 16.4 -1.2 23 9.6 SSW 11 11 6 6 1017.0 1016.5 0.0
24/06:30pm 22.5 17.9 -0.9 21 10.5 SSW 13 15 7 8 1016.7 1016.2 0.0
24/06:00pm 24.8 19.8 -1.1 18 11.8 SSW 15 17 8 9 1016.2 1015.7 0.0
24/05:30pm 27.4 21.7 -0.6 16 13.1 SSW 19 26 10 14 1015.8 1015.3 0.0
24/05:00pm 28.5 22.5 -1.6 14 14.0 S 20 26 11 14 1015.5 1015.0 0.0
24/04:30pm 29.1 23.4 -1.1 14 14.2 S 19 24 10 13 1015.3 1014.8 0.0
24/04:00pm 29.6 23.9 -0.7 14 14.4 S 19 26 10 14 1015.0 1014.6 0.0
24/03:30pm 30.5 25.1 -1.0 13 15.0 SSW 17 24 9 13 1015.2 1014.7 0.0
24/03:00pm 30.4 25.0 -1.1 13 15.0 S 17 24 9 13 1015.4 1014.9 0.0
24/02:30pm 30.2 25.0 -0.2 14 14.6 S 17 22 9 12 1015.6 1015.1 0.0
24/02:00pm 30.0 25.3 0.6 15 14.3 SSW 15 26 8 14 1015.9 1015.4 0.0
24/01:30pm 29.9 24.6 -0.5 14 14.5 S 17 26 9 14 1016.4 1015.9 0.0
24/01:00pm 29.7 24.8 -0.6 14 14.4 SSE 15 30 8 16 1016.9 1016.4 0.0
24/12:30pm 29.1 25.0 -0.1 15 14.0 ESE 11 19 6 10 1017.4 1017.0 0.0
24/12:00pm 29.0 24.4 1.5 17 13.5 SE 15 22 8 12 1018.0 1017.6 0.0
24/11:30am 28.2 23.3 1.7 18 13.0 ESE 17 24 9 13 1018.6 1018.2 0.0
24/11:00am 26.7 21.8 1.9 20 12.1 SE 17 26 9 14 1019.1 1018.7 0.0
24/10:30am 25.3 20.5 0.0 19 11.8 SE 15 20 8 11 1019.6 1019.2 0.0
24/10:00am 22.6 17.1 -2.2 19 10.9 SE 17 22 9 12 1020.0 1019.5 0.0
24/09:30am 20.8 15.1 -3.6 19 10.2 SE 17 22 9 12 1020.0 1019.5 0.0
24/09:00am 18.4 12.5 -5.6 19 9.4 SSE 17 22 9 12 1019.9 1019.4 0.0
24/08:30am 16.6 11.5 -5.2 22 8.4 S 13 24 7 13 1019.6 1019.2 0.0
24/08:00am 11.6 7.9 -4.9 31 6.1 SSW 6 7 3 4 1019.4 1019.0 0.0
24/07:30am 8.5 4.5 -5.7 36 4.9 SW 7 9 4 5 1019.3 1018.9 0.0
24/07:00am 7.6 3.1 -7.2 34 4.9 SSW 9 13 5 7 1019.0 1018.6 0.0
24/06:30am 6.8 1.9 -7.2 36 4.6 SSW 11 15 6 8 1018.8 1018.4 0.0
24/06:00am 7.0 2.6 -6.3 38 4.5 SSW 9 13 5 7 1018.5 1018.1 0.0
24/05:30am 6.7 2.2 -7.3 36 4.6 SW 9 9 5 5 1018.1 1017.7 0.0
24/05:00am 7.1 3.1 -7.3 35 4.7 SW 6 7 3 4 1018.0 1017.6 0.0
24/04:30am 7.0 3.0 -8.1 33 4.9 SSW 6 7 3 4 1017.8 1017.4 0.0
24/04:00am 7.2 3.0 -8.0 33 4.9 SSW 7 7 4 4 1017.8 1017.4 0.0
24/03:30am 7.6 3.6 -8.0 32 5.1 SSW 6 7 3 4 1017.7 1017.3 0.0
24/03:00am 7.9 3.6 -8.6 30 5.3 SW 7 9 4 5 1017.8 1017.4 0.0
24/02:30am 8.7 4.7 -7.5 31 5.4 SW 6 7 3 4 1017.8 1017.4 0.0
24/02:00am 8.9 4.7 -7.7 30 5.6 SSW 7 7 4 4 1017.8 1017.4 0.0
24/01:30am 10.0 5.8 -7.6 28 6.0 SSW 7 9 4 5 1018.0 1017.6 0.0
24/01:00am 11.2 7.0 -7.6 26 6.5 SSW 7 9 4 5 1018.0 1017.6 0.0
24/12:30am 11.6 7.1 -7.2 26 6.6 SSW 9 11 5 6 1018.1 1017.7 0.0
24/12:00am 11.2 6.3 -7.1 27 6.4 SSW 11 11 6 6 1018.1 1017.7 0.0
 
Date/Time
CST
Temp
°C
App
Temp
°C
Dew
Point
°C
Rel
Hum
%
Delta-T
°C
Wind Press
QNH
hPa
Press
MSL
hPa
Rain since
9am
mm
Dir  Spd
km/h
Gust
km/h
Spd
kts
Gust
kts
23/11:30pm 11.0 6.4 -7.7 26 6.4 SSW 9 11 5 6 1018.3 1017.9 0.0
23/11:00pm 11.0 6.1 -7.3 27 6.4 SSW 11 11 6 6 1018.4 1018.0 0.0
23/10:30pm 11.5 7.0 -6.8 27 6.5 SW 9 11 5 6 1018.6 1018.2 0.0
23/10:00pm 12.6 8.0 -7.4 24 7.1 SSW 9 11 5 6 1018.6 1018.2 0.0
23/09:30pm 13.6 9.0 -7.7 22 7.6 SW 9 11 5 6 1018.5 1018.1 0.0
23/09:00pm 14.9 10.4 -7.2 21 8.1 SW 9 11 5 6 1018.2 1017.8 0.0
23/08:30pm 16.5 12.0 -7.2 19 8.8 SSW 9 11 5 6 1018.0 1017.6 0.0
23/08:00pm 17.6 13.0 -8.5 16 9.6 S 9 11 5 6 1017.8 1017.4 0.0
23/07:30pm 17.7 12.7 -8.4 16 9.6 S 11 13 6 7 1017.4 1017.0 0.0
23/07:00pm 19.1 14.1 -8.1 15 10.2 S 11 13 6 7 1017.0 1016.5 0.0
23/06:30pm 20.5 15.5 -7.9 14 10.9 S 11 13 6 7 1016.7 1016.2 0.0
23/06:00pm 22.6 17.7 -7.2 13 11.8 S 11 13 6 7 1016.4 1015.9 0.0
23/05:30pm 25.2 19.9 -7.3 11 13.2 S 13 17 7 9 1016.2 1015.7 0.0
23/05:00pm 25.7 19.7 -6.9 11 13.4 S 17 24 9 13 1016.0 1015.5 0.0
23/04:30pm 26.3 19.9 -6.5 11 13.7 S 19 24 10 13 1015.8 1015.3 0.0
23/04:00pm 27.0 20.9 -7.2 10 14.2 SSE 17 20 9 11 1015.9 1015.4 0.0
23/03:30pm 27.7 21.8 -5.4 11 14.3 S 17 20 9 11 1015.8 1015.3 0.0
23/03:00pm 27.4 21.1 -5.6 11 14.1 S 19 26 10 14 1015.8 1015.3 0.0
23/02:30pm 27.4 20.9 -5.6 11 14.1 S 20 28 11 15 1016.0 1015.5 0.0
23/02:00pm 27.0 20.5 -5.9 11 14.0 S 20 28 11 15 1016.5 1016.0 0.0
23/01:30pm 26.9 20.5 -4.9 12 13.7 S 20 26 11 14 1016.9 1016.4 0.0
23/01:00pm 26.4 20.0 -5.3 12 13.5 S 20 30 11 16 1017.3 1016.9 0.0
23/12:30pm 26.1 19.8 -4.4 13 13.2 S 20 28 11 15 1018.0 1017.6 0.0
23/12:00pm 25.6 19.4 -4.8 13 13.0 SSE 19 26 10 14 1018.7 1018.3 0.0
23/11:30am 24.8 18.7 -3.6 15 12.3 SSE 19 28 10 15 1019.2 1018.8 0.0
23/11:00am 23.8 17.6 -3.5 16 11.8 S 20 28 11 15 1019.5 1019.1 0.0
23/10:30am 23.0 17.4 -3.3 17 11.3 SSE 17 24 9 13 1020.1 1019.6 0.0
23/10:00am 22.0 16.0 -3.4 18 10.8 SSE 19 28 10 15 1020.3 1019.8 0.0
23/09:30am 20.6 14.4 -3.1 20 10.0 SSE 20 32 11 17 1020.3 1019.8 0.0
23/09:00am 18.4 12.8 -2.5 24 8.8 SSE 17 26 9 14 1020.4 1019.9 0.0
23/08:59am 18.5 13.0 -2.4 24 8.8 SSE 17 26 9 14 1020.3 1019.8 0.0
23/08:30am 13.4 9.7 -2.5 33 6.3 SSW 7 9 4 5 1020.3 1019.8 0.0
23/08:00am 8.9 5.2 -3.3 42 4.5 SSW 7 9 4 5 1020.0 1019.5 0.0
23/07:30am 5.8 1.6 -3.5 51 3.3 SSW 9 9 5 5 1019.6 1019.2 0.0
23/07:00am 5.2 1.5 -4.1 51 3.2 SSW 6 7 3 4 1019.3 1018.9 0.0
23/06:30am 5.3 1.4 -4.5 49 3.4 SW 7 9 4 5 1019.2 1018.8 0.0
23/06:00am 5.4 1.5 -4.2 50 3.3 SW 7 7 4 4 1018.9 1018.5 0.0
23/05:30am 5.8 2.2 -3.8 50 3.4 SSW 6 7 3 4 1018.9 1018.5 0.0
23/05:00am 6.1 2.4 -4.1 48 3.6 SW 6 7 3 4 1018.7 1018.3 0.0
23/04:30am 6.4 2.7 -4.1 47 3.7 SSW 6 7 3 4 1018.6 1018.2 0.0
23/04:00am 6.6 2.7 -4.2 46 3.8 SW 7 7 4 4 1018.7 1018.3 0.0
23/03:30am 7.1 2.9 -3.7 46 3.9 SW 9 11 5 6 1018.8 1018.4 0.0
23/03:00am 7.1 3.3 -4.0 45 4.0 SSW 7 9 4 5 1018.8 1018.4 0.0
23/02:30am 7.9 4.0 -4.2 42 4.3 SW 7 7 4 4 1018.9 1018.5 0.0
23/02:00am 8.3 4.1 -4.2 41 4.5 SSW 9 9 5 5 1018.9 1018.5 0.0
23/01:30am 9.5 5.3 -3.7 39 4.9 SSW 9 9 5 5 1018.9 1018.5 0.0
23/01:00am 10.7 6.6 -3.4 37 5.3 S 9 11 5 6 1018.8 1018.4 0.0
23/12:30am 12.9 8.3 -3.8 31 6.4 SSE 11 13 6 7 1018.8 1018.4 0.0
23/12:00am 14.1 9.2 -3.6 29 6.9 SSE 13 17 7 9 1018.8 1018.4 0.0
 
Date/Time
CST
Temp
°C
App
Temp
°C
Dew
Point
°C
Rel
Hum
%
Delta-T
°C
Wind Press
QNH
hPa
Press
MSL
hPa
Rain since
9am
mm
Dir  Spd
km/h
Gust
km/h
Spd
kts
Gust
kts
22/11:30pm 15.5 9.8 -3.4 27 7.5 SSE 17 24 9 13 1018.7 1018.3 0.0
22/11:00pm 16.2 10.2 -2.8 27 7.7 S 19 24 10 13 1018.9 1018.5 0.0
22/10:30pm 12.2 7.6 -4.4 31 6.2 SSW 11 13 6 7 1019.1 1018.7 0.0
22/10:00pm 13.5 9.3 -4.2 29 6.8 SSW 9 13 5 7 1019.3 1018.9 0.0
22/09:30pm 13.5 9.2 -4.6 28 6.9 SSW 9 9 5 5 1019.1 1018.7 0.0
22/09:00pm 14.1 9.8 -4.6 27 7.2 SSW 9 11 5 6 1018.9 1018.5 0.0
22/08:30pm 14.2 9.1 -5.0 26 7.3 SSW 13 15 7 8 1018.7 1018.3 0.0
22/08:00pm 14.9 9.8 -5.5 24 7.7 SSW 13 15 7 8 1018.4 1018.0 0.0
22/07:30pm 16.3 11.2 -4.8 23 8.2 SSW 13 15 7 8 1018.1 1017.7 0.0
22/07:00pm 16.8 11.7 -5.6 21 8.7 SSW 13 15 7 8 1017.6 1017.2 0.0
22/06:30pm 18.5 13.3 -6.2 18 9.6 S 13 13 7 7 1017.2 1016.7 0.0
22/06:00pm 21.4 15.7 -7.2 14 11.2 S 15 17 8 9 1016.8 1016.3 0.0
22/05:30pm 24.6 18.7 -5.6 13 12.6 S 17 24 9 13 1016.3 1015.8 0.0
22/05:00pm 25.8 19.4 -6.9 11 13.5 S 19 26 10 14 1016.0 1015.5 0.0
22/04:30pm 26.5 20.3 -5.2 12 13.6 SSW 19 26 10 14 1015.9 1015.4 0.0
22/04:00pm 26.7 20.4 -6.2 11 13.9 S 19 22 10 12 1015.9 1015.4 0.0
22/03:30pm 27.1 21.2 -5.9 11 14.0 S 17 24 9 13 1015.9 1015.4 0.0
22/03:00pm 26.8 20.9 -6.1 11 13.9 SSW 17 24 9 13 1016.0 1015.5 0.0
22/02:30pm 26.3 20.4 -5.3 12 13.5 SSW 17 24 9 13 1016.4 1015.9 0.0
22/02:00pm 26.3 20.2 -4.3 13 13.3 SSW 19 24 10 13 1016.8 1016.3 0.0
22/01:30pm 26.2 21.3 -3.4 14 13.0 SSW 13 24 7 13 1017.3 1016.9 0.0
22/01:00pm 25.6 19.9 -3.8 14 12.8 SSW 17 26 9 14 1017.8 1017.4 0.0
22/12:30pm 24.9 19.5 -4.4 14 12.5 SSW 15 24 8 13 1018.2 1017.8 0.0
22/12:00pm 24.2 18.9 -4.0 15 12.1 S 15 24 8 13 1018.7 1018.3 0.0

Other Formats:

Comma delimited format used in spreadsheet applications
http://www.bom.gov.au/fwo/IDD60801/IDD60801.94255.axf

JavaScript Object Notation format (JSON) in row-major order
http://www.bom.gov.au/fwo/IDD60801/IDD60801.94255.json